Arman', Russia
Current Conditions -  °F | °C
As of 5:00 PM on Thursday 29 Jan 2015 (Local Time) from UHMM Reporting Station
Snow Showers Snow Showers  
Wind Chill: 23°   Ceiling: 400
Heat Index: 23°   Visibility: 0.68mi
Dew Point: 21°   Wind: 2mph
Humidity: 93%   Direction: 210°SSW
Pressure: 29.32"   Gusts: NA
Location:  59.7°N, 150.17°E
Report Text: UHMM 290600Z 21001MPS 1100 SHSN VV004 M05/M06 Q0993 TEMPO 0600+SHSN VV003 RMK QFE730 88454030 QBB130
Loading
Personal Weather Stations






























Interactive Weather Map New forecast layout! Learn more

10-Day Weather Forecast

Advertisements
Track Severe Weather on mobile